sensor_id;sensor_type;location;lat;lon;timestamp;temperature;humidity
66343;DHT22;53144;51.524;5.080;2024-03-07T00:01:44;4.38;98.34
66343;DHT22;53144;51.524;5.080;2024-03-07T00:04:10;4.44;97.98
66343;DHT22;53144;51.524;5.080;2024-03-07T00:06:35;4.38;97.96
66343;DHT22;53144;51.524;5.080;2024-03-07T00:09:00;4.30;97.28
66343;DHT22;53144;51.524;5.080;2024-03-07T00:11:27;4.24;97.45
66343;DHT22;53144;51.524;5.080;2024-03-07T00:13:53;4.23;97.74
66343;DHT22;53144;51.524;5.080;2024-03-07T00:16:19;4.20;97.58
66343;DHT22;53144;51.524;5.080;2024-03-07T00:18:44;4.16;97.60
66343;DHT22;53144;51.524;5.080;2024-03-07T00:21:09;4.05;97.42
66343;DHT22;53144;51.524;5.080;2024-03-07T00:23:34;4.05;97.47
66343;DHT22;53144;51.524;5.080;2024-03-07T00:26:00;3.99;97.58
66343;DHT22;53144;51.524;5.080;2024-03-07T00:28:25;3.90;97.58
66343;DHT22;53144;51.524;5.080;2024-03-07T00:30:54;3.79;97.46
66343;DHT22;53144;51.524;5.080;2024-03-07T00:33:20;3.75;97.61
66343;DHT22;53144;51.524;5.080;2024-03-07T00:35:46;3.81;97.79
66343;DHT22;53144;51.524;5.080;2024-03-07T00:38:12;3.71;97.32
66343;DHT22;53144;51.524;5.080;2024-03-07T00:40:37;3.68;97.58
66343;DHT22;53144;51.524;5.080;2024-03-07T00:43:03;3.69;97.98
66343;DHT22;53144;51.524;5.080;2024-03-07T00:45:28;3.62;97.57
66343;DHT22;53144;51.524;5.080;2024-03-07T00:47:54;3.72;98.17
66343;DHT22;53144;51.524;5.080;2024-03-07T00:50:19;3.64;97.59
66343;DHT22;53144;51.524;5.080;2024-03-07T00:52:44;3.62;97.55
66343;DHT22;53144;51.524;5.080;2024-03-07T00:55:11;3.69;97.98
66343;DHT22;53144;51.524;5.080;2024-03-07T00:57:36;3.75;98.45
66343;DHT22;53144;51.524;5.080;2024-03-07T01:00:02;3.76;97.90
66343;DHT22;53144;51.524;5.080;2024-03-07T01:02:28;3.76;98.09
66343;DHT22;53144;51.524;5.080;2024-03-07T01:04:53;3.81;98.38
66343;DHT22;53144;51.524;5.080;2024-03-07T01:07:19;3.89;98.32
66343;DHT22;53144;51.524;5.080;2024-03-07T01:09:46;3.95;98.53
66343;DHT22;53144;51.524;5.080;2024-03-07T01:12:11;3.87;98.25
66343;DHT22;53144;51.524;5.080;2024-03-07T01:14:37;3.96;98.27
66343;DHT22;53144;51.524;5.080;2024-03-07T01:17:02;4.03;98.25
66343;DHT22;53144;51.524;5.080;2024-03-07T01:19:28;4.09;98.22
66343;DHT22;53144;51.524;5.080;2024-03-07T01:21:53;4.13;98.76
66343;DHT22;53144;51.524;5.080;2024-03-07T01:24:18;4.23;98.94
66343;DHT22;53144;51.524;5.080;2024-03-07T01:26:45;4.21;98.70
66343;DHT22;53144;51.524;5.080;2024-03-07T01:29:10;4.10;98.26
66343;DHT22;53144;51.524;5.080;2024-03-07T01:31:36;4.11;98.61
66343;DHT22;53144;51.524;5.080;2024-03-07T01:34:01;4.02;98.15
66343;DHT22;53144;51.524;5.080;2024-03-07T01:36:26;3.95;98.23
66343;DHT22;53144;51.524;5.080;2024-03-07T01:38:52;3.99;98.09
66343;DHT22;53144;51.524;5.080;2024-03-07T01:41:17;3.89;97.92
66343;DHT22;53144;51.524;5.080;2024-03-07T01:43:43;3.86;97.85
66343;DHT22;53144;51.524;5.080;2024-03-07T01:46:08;3.79;98.13
66343;DHT22;53144;51.524;5.080;2024-03-07T01:48:35;3.74;98.63
66343;DHT22;53144;51.524;5.080;2024-03-07T01:51:01;3.66;98.37
66343;DHT22;53144;51.524;5.080;2024-03-07T01:53:28;3.74;98.87
66343;DHT22;53144;51.524;5.080;2024-03-07T01:55:55;3.74;98.86
66343;DHT22;53144;51.524;5.080;2024-03-07T01:58:21;3.72;98.90
66343;DHT22;53144;51.524;5.080;2024-03-07T02:00:46;3.65;98.85
66343;DHT22;53144;51.524;5.080;2024-03-07T02:03:13;3.72;99.20
66343;DHT22;53144;51.524;5.080;2024-03-07T02:05:39;3.76;99.38
66343;DHT22;53144;51.524;5.080;2024-03-07T02:08:04;3.79;99.53
66343;DHT22;53144;51.524;5.080;2024-03-07T02:10:30;3.76;99.16
66343;DHT22;53144;51.524;5.080;2024-03-07T02:12:55;3.82;99.24
66343;DHT22;53144;51.524;5.080;2024-03-07T02:15:20;3.85;99.03
66343;DHT22;53144;51.524;5.080;2024-03-07T02:17:46;3.85;99.00
66343;DHT22;53144;51.524;5.080;2024-03-07T02:20:11;3.86;99.02
66343;DHT22;53144;51.524;5.080;2024-03-07T02:22:38;3.89;99.36
66343;DHT22;53144;51.524;5.080;2024-03-07T02:25:03;3.86;98.99
66343;DHT22;53144;51.524;5.080;2024-03-07T02:27:29;4.03;99.49
66343;DHT22;53144;51.524;5.080;2024-03-07T02:29:54;4.07;99.60
66343;DHT22;53144;51.524;5.080;2024-03-07T02:32:20;3.99;99.26
66343;DHT22;53144;51.524;5.080;2024-03-07T02:34:46;4.00;99.54
66343;DHT22;53144;51.524;5.080;2024-03-07T02:37:12;4.16;99.87
66343;DHT22;53144;51.524;5.080;2024-03-07T02:39:38;4.14;99.81
66343;DHT22;53144;51.524;5.080;2024-03-07T02:42:04;4.13;99.73
66343;DHT22;53144;51.524;5.080;2024-03-07T02:44:29;4.27;99.78
66343;DHT22;53144;51.524;5.080;2024-03-07T02:46:56;4.18;99.73
66343;DHT22;53144;51.524;5.080;2024-03-07T02:49:22;4.20;99.72
66343;DHT22;53144;51.524;5.080;2024-03-07T02:51:47;4.18;99.72
66343;DHT22;53144;51.524;5.080;2024-03-07T02:54:12;4.18;99.69
66343;DHT22;53144;51.524;5.080;2024-03-07T02:56:38;4.14;99.89
66343;DHT22;53144;51.524;5.080;2024-03-07T02:59:03;4.17;99.96
66343;DHT22;53144;51.524;5.080;2024-03-07T03:01:28;4.17;99.62
66343;DHT22;53144;51.524;5.080;2024-03-07T03:03:54;4.13;99.30
66343;DHT22;53144;51.524;5.080;2024-03-07T03:06:19;4.06;99.49
66343;DHT22;53144;51.524;5.080;2024-03-07T03:08:46;4.06;99.66
66343;DHT22;53144;51.524;5.080;2024-03-07T03:11:11;4.11;99.99
66343;DHT22;53144;51.524;5.080;2024-03-07T03:13:39;4.20;99.86
66343;DHT22;53144;51.524;5.080;2024-03-07T03:16:04;4.14;99.63
66343;DHT22;53144;51.524;5.080;2024-03-07T03:18:32;4.13;99.98
66343;DHT22;53144;51.524;5.080;2024-03-07T03:20:59;4.05;99.99
66343;DHT22;53144;51.524;5.080;2024-03-07T03:23:24;4.06;99.99
66343;DHT22;53144;51.524;5.080;2024-03-07T03:25:50;4.16;99.62
66343;DHT22;53144;51.524;5.080;2024-03-07T03:28:15;4.11;99.99
66343;DHT22;53144;51.524;5.080;2024-03-07T03:30:41;4.07;99.99
66343;DHT22;53144;51.524;5.080;2024-03-07T03:33:08;4.07;99.99
66343;DHT22;53144;51.524;5.080;2024-03-07T03:35:33;4.05;99.99
66343;DHT22;53144;51.524;5.080;2024-03-07T03:37:59;4.09;99.99
66343;DHT22;53144;51.524;5.080;2024-03-07T03:40:24;4.10;99.79
66343;DHT22;53144;51.524;5.080;2024-03-07T03:42:49;4.06;99.75
66343;DHT22;53144;51.524;5.080;2024-03-07T03:45:15;4.07;99.88
66343;DHT22;53144;51.524;5.080;2024-03-07T03:47:41;3.97;99.99
66343;DHT22;53144;51.524;5.080;2024-03-07T03:50:07;4.03;99.99
66343;DHT22;53144;51.524;5.080;2024-03-07T03:52:33;4.00;99.74
66343;DHT22;53144;51.524;5.080;2024-03-07T03:55:01;3.99;99.99
66343;DHT22;53144;51.524;5.080;2024-03-07T03:57:27;3.97;99.94
66343;DHT22;53144;51.524;5.080;2024-03-07T03:59:53;3.92;99.99
66343;DHT22;53144;51.524;5.080;2024-03-07T04:02:18;3.92;99.99
66343;DHT22;53144;51.524;5.080;2024-03-07T04:04:44;3.95;99.99
66343;DHT22;53144;51.524;5.080;2024-03-07T04:07:11;3.90;99.99
66343;DHT22;53144;51.524;5.080;2024-03-07T04:09:37;3.82;99.99
66343;DHT22;53144;51.524;5.080;2024-03-07T04:12:02;3.93;99.99
66343;DHT22;53144;51.524;5.080;2024-03-07T04:14:27;3.85;99.99
66343;DHT22;53144;51.524;5.080;2024-03-07T04:16:55;3.82;99.99
66343;DHT22;53144;51.524;5.080;2024-03-07T04:19:21;3.86;99.99
66343;DHT22;53144;51.524;5.080;2024-03-07T04:21:47;3.79;99.99
66343;DHT22;53144;51.524;5.080;2024-03-07T04:24:12;3.74;99.99
66343;DHT22;53144;51.524;5.080;2024-03-07T04:26:38;3.69;99.96
66343;DHT22;53144;51.524;5.080;2024-03-07T04:29:03;3.66;99.99
66343;DHT22;53144;51.524;5.080;2024-03-07T04:31:28;3.62;99.99
66343;DHT22;53144;51.524;5.080;2024-03-07T04:33:54;3.76;99.99
66343;DHT22;53144;51.524;5.080;2024-03-07T04:36:19;3.72;99.99
66343;DHT22;53144;51.524;5.080;2024-03-07T04:38:44;3.71;99.99
66343;DHT22;53144;51.524;5.080;2024-03-07T04:41:11;3.71;99.99
66343;DHT22;53144;51.524;5.080;2024-03-07T04:43:36;3.72;99.99
66343;DHT22;53144;51.524;5.080;2024-03-07T04:46:02;3.72;99.97
66343;DHT22;53144;51.524;5.080;2024-03-07T04:48:28;3.72;99.89
66343;DHT22;53144;51.524;5.080;2024-03-07T04:50:53;3.65;99.99
66343;DHT22;53144;51.524;5.080;2024-03-07T04:53:19;3.59;99.99
66343;DHT22;53144;51.524;5.080;2024-03-07T04:55:44;3.56;99.99
66343;DHT22;53144;51.524;5.080;2024-03-07T04:58:10;3.52;99.99
66343;DHT22;53144;51.524;5.080;2024-03-07T05:00:35;3.44;99.99
66343;DHT22;53144;51.524;5.080;2024-03-07T05:03:00;3.50;99.99
66343;DHT22;53144;51.524;5.080;2024-03-07T05:05:26;3.42;99.99
66343;DHT22;53144;51.524;5.080;2024-03-07T05:07:51;3.45;99.99
66343;DHT22;53144;51.524;5.080;2024-03-07T05:10:17;3.45;99.99
66343;DHT22;53144;51.524;5.080;2024-03-07T05:12:42;3.48;99.91
66343;DHT22;53144;51.524;5.080;2024-03-07T05:15:08;3.42;99.99
66343;DHT22;53144;51.524;5.080;2024-03-07T05:17:36;3.38;99.99
66343;DHT22;53144;51.524;5.080;2024-03-07T05:20:03;3.42;99.99
66343;DHT22;53144;51.524;5.080;2024-03-07T05:22:34;3.41;99.99
66343;DHT22;53144;51.524;5.080;2024-03-07T05:25:00;3.45;99.99
66343;DHT22;53144;51.524;5.080;2024-03-07T05:27:25;3.44;99.99
66343;DHT22;53144;51.524;5.080;2024-03-07T05:29:52;3.50;99.99
66343;DHT22;53144;51.524;5.080;2024-03-07T05:32:24;3.54;99.99
66343;DHT22;53144;51.524;5.080;2024-03-07T05:34:50;3.52;99.89
66343;DHT22;53144;51.524;5.080;2024-03-07T05:37:16;3.50;99.99
66343;DHT22;53144;51.524;5.080;2024-03-07T05:39:41;3.51;99.99
66343;DHT22;53144;51.524;5.080;2024-03-07T05:42:07;3.50;99.99
66343;DHT22;53144;51.524;5.080;2024-03-07T05:44:35;3.51;99.86
66343;DHT22;53144;51.524;5.080;2024-03-07T05:47:00;3.47;99.98
66343;DHT22;53144;51.524;5.080;2024-03-07T05:49:26;3.42;99.99
66343;DHT22;53144;51.524;5.080;2024-03-07T05:51:51;3.42;99.99
66343;DHT22;53144;51.524;5.080;2024-03-07T05:54:16;3.38;99.99
66343;DHT22;53144;51.524;5.080;2024-03-07T05:56:42;3.39;99.99
66343;DHT22;53144;51.524;5.080;2024-03-07T05:59:08;3.39;99.99
66343;DHT22;53144;51.524;5.080;2024-03-07T06:01:34;3.41;99.90
66343;DHT22;53144;51.524;5.080;2024-03-07T06:04:00;3.39;99.86
66343;DHT22;53144;51.524;5.080;2024-03-07T06:06:26;3.39;99.89
66343;DHT22;53144;51.524;5.080;2024-03-07T06:08:52;3.39;99.93
66343;DHT22;53144;51.524;5.080;2024-03-07T06:11:17;3.38;99.95
66343;DHT22;53144;51.524;5.080;2024-03-07T06:13:46;3.31;99.99
66343;DHT22;53144;51.524;5.080;2024-03-07T06:16:11;3.35;99.96
66343;DHT22;53144;51.524;5.080;2024-03-07T06:18:42;3.30;99.99
66343;DHT22;53144;51.524;5.080;2024-03-07T06:21:07;3.28;99.99
66343;DHT22;53144;51.524;5.080;2024-03-07T06:23:35;3.37;99.99
66343;DHT22;53144;51.524;5.080;2024-03-07T06:26:01;3.37;99.65
66343;DHT22;53144;51.524;5.080;2024-03-07T06:28:31;3.27;99.99
66343;DHT22;53144;51.524;5.080;2024-03-07T06:30:57;3.23;99.99
66343;DHT22;53144;51.524;5.080;2024-03-07T06:33:22;3.28;99.95
66343;DHT22;53144;51.524;5.080;2024-03-07T06:35:47;3.35;99.90
66343;DHT22;53144;51.524;5.080;2024-03-07T06:38:13;3.39;99.82
66343;DHT22;53144;51.524;5.080;2024-03-07T06:40:39;3.39;99.74
66343;DHT22;53144;51.524;5.080;2024-03-07T06:43:08;3.39;99.65
66343;DHT22;53144;51.524;5.080;2024-03-07T06:45:35;3.37;99.87
66343;DHT22;53144;51.524;5.080;2024-03-07T06:48:02;3.44;99.66
66343;DHT22;53144;51.524;5.080;2024-03-07T06:50:28;3.39;99.56
66343;DHT22;53144;51.524;5.080;2024-03-07T06:52:54;3.44;99.61
66343;DHT22;53144;51.524;5.080;2024-03-07T06:55:19;3.37;99.69
66343;DHT22;53144;51.524;5.080;2024-03-07T06:57:45;3.35;99.89
66343;DHT22;53144;51.524;5.080;2024-03-07T07:00:11;3.42;99.84
66343;DHT22;53144;51.524;5.080;2024-03-07T07:02:37;3.51;99.64
66343;DHT22;53144;51.524;5.080;2024-03-07T07:05:03;3.55;99.47
66343;DHT22;53144;51.524;5.080;2024-03-07T07:07:32;3.61;99.35
66343;DHT22;53144;51.524;5.080;2024-03-07T07:09:58;3.64;99.28
66343;DHT22;53144;51.524;5.080;2024-03-07T07:12:23;3.61;99.10
66343;DHT22;53144;51.524;5.080;2024-03-07T07:14:48;3.75;99.33
66343;DHT22;53144;51.524;5.080;2024-03-07T07:17:14;3.87;98.98
66343;DHT22;53144;51.524;5.080;2024-03-07T07:19:39;3.87;98.72
66343;DHT22;53144;51.524;5.080;2024-03-07T07:22:05;3.92;98.49
66343;DHT22;53144;51.524;5.080;2024-03-07T07:24:31;4.00;98.35
66343;DHT22;53144;51.524;5.080;2024-03-07T07:26:59;3.93;98.35
66343;DHT22;53144;51.524;5.080;2024-03-07T07:29:25;4.02;98.33
66343;DHT22;53144;51.524;5.080;2024-03-07T07:31:51;4.02;98.32
66343;DHT22;53144;51.524;5.080;2024-03-07T07:34:17;4.09;98.06
66343;DHT22;53144;51.524;5.080;2024-03-07T07:36:42;4.24;97.79
66343;DHT22;53144;51.524;5.080;2024-03-07T07:39:07;4.34;97.58
66343;DHT22;53144;51.524;5.080;2024-03-07T07:41:42;4.43;97.45
66343;DHT22;53144;51.524;5.080;2024-03-07T07:44:07;4.40;96.88
66343;DHT22;53144;51.524;5.080;2024-03-07T07:46:33;4.58;96.40
66343;DHT22;53144;51.524;5.080;2024-03-07T07:48:59;4.51;96.20
66343;DHT22;53144;51.524;5.080;2024-03-07T07:51:25;4.67;96.25
66343;DHT22;53144;51.524;5.080;2024-03-07T07:53:51;4.71;96.31
66343;DHT22;53144;51.524;5.080;2024-03-07T07:56:19;4.74;95.73
66343;DHT22;53144;51.524;5.080;2024-03-07T07:58:44;4.78;95.83
66343;DHT22;53144;51.524;5.080;2024-03-07T08:01:09;4.78;95.62
66343;DHT22;53144;51.524;5.080;2024-03-07T08:03:35;4.95;95.56
66343;DHT22;53144;51.524;5.080;2024-03-07T08:06:00;5.02;94.46
66343;DHT22;53144;51.524;5.080;2024-03-07T08:08:26;5.09;94.44
66343;DHT22;53144;51.524;5.080;2024-03-07T08:10:51;5.22;94.34
66343;DHT22;53144;51.524;5.080;2024-03-07T08:13:16;5.26;94.09
66343;DHT22;53144;51.524;5.080;2024-03-07T08:15:42;5.34;94.02
66343;DHT22;53144;51.524;5.080;2024-03-07T08:18:07;5.44;92.81
66343;DHT22;53144;51.524;5.080;2024-03-07T08:20:35;5.43;93.16
66343;DHT22;53144;51.524;5.080;2024-03-07T08:23:01;5.55;93.46
66343;DHT22;53144;51.524;5.080;2024-03-07T08:25:27;5.70;92.04
66343;DHT22;53144;51.524;5.080;2024-03-07T08:27:53;5.71;92.03
66343;DHT22;53144;51.524;5.080;2024-03-07T08:30:19;5.82;91.79
66343;DHT22;53144;51.524;5.080;2024-03-07T08:32:45;5.92;91.10
66343;DHT22;53144;51.524;5.080;2024-03-07T08:35:11;5.97;91.06
66343;DHT22;53144;51.524;5.080;2024-03-07T08:37:40;6.02;91.06
66343;DHT22;53144;51.524;5.080;2024-03-07T08:40:06;6.11;89.61
66343;DHT22;53144;51.524;5.080;2024-03-07T08:42:38;6.30;90.23
66343;DHT22;53144;51.524;5.080;2024-03-07T08:45:04;6.32;89.07
66343;DHT22;53144;51.524;5.080;2024-03-07T08:47:30;6.36;88.63
66343;DHT22;53144;51.524;5.080;2024-03-07T08:49:56;6.47;87.77
66343;DHT22;53144;51.524;5.080;2024-03-07T08:52:21;6.50;86.97
66343;DHT22;53144;51.524;5.080;2024-03-07T08:54:47;6.47;87.08
66343;DHT22;53144;51.524;5.080;2024-03-07T08:57:12;6.56;87.35
66343;DHT22;53144;51.524;5.080;2024-03-07T08:59:42;6.63;85.98
66343;DHT22;53144;51.524;5.080;2024-03-07T09:02:08;6.77;86.81
66343;DHT22;53144;51.524;5.080;2024-03-07T09:04:33;6.88;85.89
66343;DHT22;53144;51.524;5.080;2024-03-07T09:06:59;7.00;85.91
66343;DHT22;53144;51.524;5.080;2024-03-07T09:09:24;7.05;85.51
66343;DHT22;53144;51.524;5.080;2024-03-07T09:11:49;7.08;85.72
66343;DHT22;53144;51.524;5.080;2024-03-07T09:14:14;7.09;85.60
66343;DHT22;53144;51.524;5.080;2024-03-07T09:16:40;7.12;83.50
66343;DHT22;53144;51.524;5.080;2024-03-07T09:19:06;7.04;83.17
66343;DHT22;53144;51.524;5.080;2024-03-07T09:21:31;7.14;83.97
66343;DHT22;53144;51.524;5.080;2024-03-07T09:23:56;7.14;82.58
66343;DHT22;53144;51.524;5.080;2024-03-07T09:26:22;7.21;83.18
66343;DHT22;53144;51.524;5.080;2024-03-07T09:28:47;7.31;82.89
66343;DHT22;53144;51.524;5.080;2024-03-07T09:31:16;7.39;82.65
66343;DHT22;53144;51.524;5.080;2024-03-07T09:33:41;7.62;83.01
66343;DHT22;53144;51.524;5.080;2024-03-07T09:36:06;7.77;82.26
66343;DHT22;53144;51.524;5.080;2024-03-07T09:38:32;7.79;81.11
66343;DHT22;53144;51.524;5.080;2024-03-07T09:40:58;7.81;80.95
66343;DHT22;53144;51.524;5.080;2024-03-07T09:43:24;7.81;80.81
66343;DHT22;53144;51.524;5.080;2024-03-07T09:45:51;8.07;79.95
66343;DHT22;53144;51.524;5.080;2024-03-07T09:48:17;8.18;78.90
66343;DHT22;53144;51.524;5.080;2024-03-07T09:50:43;8.38;78.39
66343;DHT22;53144;51.524;5.080;2024-03-07T09:53:09;8.56;78.48
66343;DHT22;53144;51.524;5.080;2024-03-07T09:55:35;8.77;78.34
66343;DHT22;53144;51.524;5.080;2024-03-07T09:58:00;8.86;77.10
66343;DHT22;53144;51.524;5.080;2024-03-07T10:00:25;8.56;76.79
66343;DHT22;53144;51.524;5.080;2024-03-07T10:03:10;8.72;77.19
66343;DHT22;53144;51.524;5.080;2024-03-07T10:05:38;8.89;74.88
66343;DHT22;53144;51.524;5.080;2024-03-07T10:08:04;9.32;75.22
66343;DHT22;53144;51.524;5.080;2024-03-07T10:10:30;9.38;72.25
66343;DHT22;53144;51.524;5.080;2024-03-07T10:12:55;9.67;72.22
66343;DHT22;53144;51.524;5.080;2024-03-07T10:15:30;9.71;71.57
66343;DHT22;53144;51.524;5.080;2024-03-07T10:17:55;9.68;72.79
66343;DHT22;53144;51.524;5.080;2024-03-07T10:20:20;9.42;72.25
66343;DHT22;53144;51.524;5.080;2024-03-07T10:22:47;9.95;71.23
66343;DHT22;53144;51.524;5.080;2024-03-07T10:25:16;9.95;71.76
66343;DHT22;53144;51.524;5.080;2024-03-07T10:27:42;10.44;70.05
66343;DHT22;53144;51.524;5.080;2024-03-07T10:30:09;10.12;69.24
66343;DHT22;53144;51.524;5.080;2024-03-07T10:32:35;10.46;68.75
66343;DHT22;53144;51.524;5.080;2024-03-07T10:35:01;9.95;71.44
66343;DHT22;53144;51.524;5.080;2024-03-07T10:37:28;10.32;69.74
66343;DHT22;53144;51.524;5.080;2024-03-07T10:39:54;10.88;69.34
66343;DHT22;53144;51.524;5.080;2024-03-07T10:42:19;10.50;69.91
66343;DHT22;53144;51.524;5.080;2024-03-07T10:44:47;10.95;69.21
66343;DHT22;53144;51.524;5.080;2024-03-07T10:47:17;11.23;67.81
66343;DHT22;53144;51.524;5.080;2024-03-07T10:52:22;12.17;65.44
66343;DHT22;53144;51.524;5.080;2024-03-07T10:55:08;11.90;66.04
66343;DHT22;53144;51.524;5.080;2024-03-07T10:57:43;11.73;66.58
66343;DHT22;53144;51.524;5.080;2024-03-07T11:00:10;12.28;65.22
66343;DHT22;53144;51.524;5.080;2024-03-07T11:02:55;12.21;65.97
66343;DHT22;53144;51.524;5.080;2024-03-07T11:05:20;12.22;64.30
66343;DHT22;53144;51.524;5.080;2024-03-07T11:07:49;12.75;63.57
66343;DHT22;53144;51.524;5.080;2024-03-07T11:10:15;12.93;63.65
66343;DHT22;53144;51.524;5.080;2024-03-07T11:12:42;12.69;62.02
66343;DHT22;53144;51.524;5.080;2024-03-07T11:15:09;13.10;61.97
66343;DHT22;53144;51.524;5.080;2024-03-07T11:17:43;13.00;62.56
66343;DHT22;53144;51.524;5.080;2024-03-07T11:20:19;13.07;61.93
66343;DHT22;53144;51.524;5.080;2024-03-07T11:22:47;12.82;62.59
66343;DHT22;53144;51.524;5.080;2024-03-07T11:25:12;12.80;62.90
66343;DHT22;53144;51.524;5.080;2024-03-07T11:27:38;12.82;63.86
66343;DHT22;53144;51.524;5.080;2024-03-07T11:30:08;12.64;63.86
66343;DHT22;53144;51.524;5.080;2024-03-07T11:32:34;12.42;65.23
66343;DHT22;53144;51.524;5.080;2024-03-07T11:35:00;13.08;64.23
66343;DHT22;53144;51.524;5.080;2024-03-07T11:37:39;12.24;63.75
66343;DHT22;53144;51.524;5.080;2024-03-07T11:42:50;11.71;65.48
66343;DHT22;53144;51.524;5.080;2024-03-07T11:45:18;11.71;65.12
66343;DHT22;53144;51.524;5.080;2024-03-07T11:47:58;10.67;67.18
66343;DHT22;53144;51.524;5.080;2024-03-07T11:50:35;11.84;65.21
66343;DHT22;53144;51.524;5.080;2024-03-07T11:53:01;12.36;64.17
66343;DHT22;53144;51.524;5.080;2024-03-07T11:55:27;12.32;63.76
66343;DHT22;53144;51.524;5.080;2024-03-07T11:58:07;13.21;62.15
66343;DHT22;53144;51.524;5.080;2024-03-07T12:00:34;12.93;61.91
66343;DHT22;53144;51.524;5.080;2024-03-07T12:03:00;13.12;60.71
66343;DHT22;53144;51.524;5.080;2024-03-07T12:05:25;13.45;59.65
66343;DHT22;53144;51.524;5.080;2024-03-07T12:07:52;14.03;59.24
66343;DHT22;53144;51.524;5.080;2024-03-07T12:10:17;14.37;58.15
66343;DHT22;53144;51.524;5.080;2024-03-07T12:12:49;12.55;60.38
66343;DHT22;53144;51.524;5.080;2024-03-07T12:15:15;11.80;62.36
66343;DHT22;53144;51.524;5.080;2024-03-07T12:17:45;11.78;63.55
66343;DHT22;53144;51.524;5.080;2024-03-07T12:20:11;11.36;64.85
66343;DHT22;53144;51.524;5.080;2024-03-07T12:23:15;11.06;65.97
66343;DHT22;53144;51.524;5.080;2024-03-07T12:25:44;10.79;67.54
66343;DHT22;53144;51.524;5.080;2024-03-07T12:28:11;10.79;67.74
66343;DHT22;53144;51.524;5.080;2024-03-07T12:30:55;10.68;66.69
66343;DHT22;53144;51.524;5.080;2024-03-07T12:33:21;10.48;67.46
66343;DHT22;53144;51.524;5.080;2024-03-07T12:35:50;10.30;68.09
66343;DHT22;53144;51.524;5.080;2024-03-07T12:38:17;10.29;66.93
66343;DHT22;53144;51.524;5.080;2024-03-07T12:40:43;10.16;67.51
66343;DHT22;53144;51.524;5.080;2024-03-07T12:43:21;10.05;68.01
66343;DHT22;53144;51.524;5.080;2024-03-07T12:45:52;10.34;66.45
66343;DHT22;53144;51.524;5.080;2024-03-07T12:48:19;10.84;65.05
66343;DHT22;53144;51.524;5.080;2024-03-07T12:50:46;11.29;64.52
66343;DHT22;53144;51.524;5.080;2024-03-07T12:53:15;11.71;63.87
66343;DHT22;53144;51.524;5.080;2024-03-07T12:55:43;11.71;62.63
66343;DHT22;53144;51.524;5.080;2024-03-07T12:58:09;11.78;62.01
66343;DHT22;53144;51.524;5.080;2024-03-07T13:00:41;11.85;60.97
66343;DHT22;53144;51.524;5.080;2024-03-07T13:03:07;11.50;62.73
66343;DHT22;53144;51.524;5.080;2024-03-07T13:05:36;11.30;62.69
66343;DHT22;53144;51.524;5.080;2024-03-07T13:08:05;11.54;63.33
66343;DHT22;53144;51.524;5.080;2024-03-07T13:10:31;11.95;61.00
66343;DHT22;53144;51.524;5.080;2024-03-07T13:12:56;12.99;60.04
66343;DHT22;53144;51.524;5.080;2024-03-07T13:15:21;13.30;59.57
66343;DHT22;53144;51.524;5.080;2024-03-07T13:17:49;13.37;59.25
66343;DHT22;53144;51.524;5.080;2024-03-07T13:20:17;13.80;57.81
66343;DHT22;53144;51.524;5.080;2024-03-07T13:22:47;13.99;58.76
66343;DHT22;53144;51.524;5.080;2024-03-07T13:25:13;14.09;55.07
66343;DHT22;53144;51.524;5.080;2024-03-07T13:27:42;13.65;56.14
66343;DHT22;53144;51.524;5.080;2024-03-07T13:30:09;12.76;58.63
66343;DHT22;53144;51.524;5.080;2024-03-07T13:32:38;13.35;56.77
66343;DHT22;53144;51.524;5.080;2024-03-07T13:35:03;12.91;59.36
66343;DHT22;53144;51.524;5.080;2024-03-07T13:37:29;12.11;61.15
66343;DHT22;53144;51.524;5.080;2024-03-07T13:39:58;11.87;62.02
66343;DHT22;53144;51.524;5.080;2024-03-07T13:42:24;11.78;61.29
66343;DHT22;53144;51.524;5.080;2024-03-07T13:44:49;12.01;62.81
66343;DHT22;53144;51.524;5.080;2024-03-07T13:47:15;12.48;61.38
66343;DHT22;53144;51.524;5.080;2024-03-07T13:49:41;12.28;61.98
66343;DHT22;53144;51.524;5.080;2024-03-07T13:52:07;11.81;62.35
66343;DHT22;53144;51.524;5.080;2024-03-07T13:54:44;11.37;63.33
66343;DHT22;53144;51.524;5.080;2024-03-07T13:59:56;11.78;62.69
66343;DHT22;53144;51.524;5.080;2024-03-07T14:24:25;11.30;64.92
66343;DHT22;53144;51.524;5.080;2024-03-07T14:27:18;10.94;64.35
66343;DHT22;53144;51.524;5.080;2024-03-07T14:32:16;10.63;65.75
66343;DHT22;53144;51.524;5.080;2024-03-07T14:37:23;10.50;65.94
66343;DHT22;53144;51.524;5.080;2024-03-07T14:39:50;10.47;66.87
66343;DHT22;53144;51.524;5.080;2024-03-07T14:42:16;10.38;66.11
66343;DHT22;53144;51.524;5.080;2024-03-07T14:44:45;10.24;67.43
66343;DHT22;53144;51.524;5.080;2024-03-07T14:47:13;10.51;67.61
66343;DHT22;53144;51.524;5.080;2024-03-07T14:49:39;10.46;67.71
66343;DHT22;53144;51.524;5.080;2024-03-07T14:52:05;10.54;67.63
66343;DHT22;53144;51.524;5.080;2024-03-07T14:54:36;10.72;65.82
66343;DHT22;53144;51.524;5.080;2024-03-07T14:57:02;10.68;65.85
66343;DHT22;53144;51.524;5.080;2024-03-07T14:59:29;10.57;66.68
66343;DHT22;53144;51.524;5.080;2024-03-07T15:01:54;10.71;66.12
66343;DHT22;53144;51.524;5.080;2024-03-07T15:04:20;10.77;65.82
66343;DHT22;53144;51.524;5.080;2024-03-07T15:06:46;10.85;66.84
66343;DHT22;53144;51.524;5.080;2024-03-07T15:09:12;11.08;66.89
66343;DHT22;53144;51.524;5.080;2024-03-07T15:11:40;11.08;68.15
66343;DHT22;53144;51.524;5.080;2024-03-07T15:14:06;10.85;67.05
66343;DHT22;53144;51.524;5.080;2024-03-07T15:16:34;10.88;67.94
66343;DHT22;53144;51.524;5.080;2024-03-07T15:19:03;10.77;68.05
66343;DHT22;53144;51.524;5.080;2024-03-07T15:21:28;10.43;68.78
66343;DHT22;53144;51.524;5.080;2024-03-07T15:23:54;10.46;68.54
66343;DHT22;53144;51.524;5.080;2024-03-07T15:26:20;10.37;69.68
66343;DHT22;53144;51.524;5.080;2024-03-07T15:28:48;10.21;71.97
66343;DHT22;53144;51.524;5.080;2024-03-07T15:31:13;10.00;71.93
66343;DHT22;53144;51.524;5.080;2024-03-07T15:33:39;9.79;72.57
66343;DHT22;53144;51.524;5.080;2024-03-07T15:36:08;9.95;72.34
66343;DHT22;53144;51.524;5.080;2024-03-07T15:38:34;10.02;73.68
66343;DHT22;53144;51.524;5.080;2024-03-07T15:41:03;9.90;72.90
66343;DHT22;53144;51.524;5.080;2024-03-07T15:43:28;9.95;73.42
66343;DHT22;53144;51.524;5.080;2024-03-07T15:45:54;10.09;73.33
66343;DHT22;53144;51.524;5.080;2024-03-07T15:48:22;10.10;72.84
66343;DHT22;53144;51.524;5.080;2024-03-07T15:50:50;10.03;73.72
66343;DHT22;53144;51.524;5.080;2024-03-07T15:53:15;9.95;74.49
66343;DHT22;53144;51.524;5.080;2024-03-07T15:55:41;9.96;75.03
66343;DHT22;53144;51.524;5.080;2024-03-07T15:58:08;9.93;75.62
66343;DHT22;53144;51.524;5.080;2024-03-07T16:00:35;9.98;74.70
66343;DHT22;53144;51.524;5.080;2024-03-07T16:03:01;9.55;76.23
66343;DHT22;53144;51.524;5.080;2024-03-07T16:05:32;9.42;76.53
66343;DHT22;53144;51.524;5.080;2024-03-07T16:07:59;9.54;76.83
66343;DHT22;53144;51.524;5.080;2024-03-07T16:10:28;9.40;76.84
66343;DHT22;53144;51.524;5.080;2024-03-07T16:12:55;9.40;77.75
66343;DHT22;53144;51.524;5.080;2024-03-07T16:15:22;9.37;78.06